Stephenville, Texas
Current Conditions -  °F | °C
As of 12:15 PM on Thursday 23 Oct 2014 (Local Time) from KSEP Reporting Station
Clear Clear  
Wind Chill: 24°   Ceiling: Unl
Heat Index: 24°   Visibility: 10mi
Dew Point: 15°   Wind: 6mph
Humidity: 57%   Direction: 150°SSE
Pressure: 30.18"   Gusts: NA
Location:  32.22°N, 98.2°W
Report Text: KSEP 231715Z AUTO 15005KT 10SM CLR 24/15 A3018 RMK AO2 T02430152
Loading
Personal Weather Stations






























Interactive Weather Map New forecast layout! Learn more

10-Day Weather Forecast

Advertisements
Track Severe Weather on mobile